createdAt,value
2022-11-25T00:01:23.448Z,1.30
2022-11-25T00:03:53.134Z,1.90
2022-11-25T00:06:21.966Z,2.05
2022-11-25T00:08:52.485Z,1.52
2022-11-25T00:11:20.417Z,1.58
2022-11-25T00:13:48.606Z,1.92
2022-11-25T00:16:17.650Z,1.63
2022-11-25T00:18:45.774Z,2.22
2022-11-25T00:21:14.817Z,1.98
2022-11-25T00:23:42.726Z,2.00
2022-11-25T00:26:12.905Z,2.08
2022-11-25T00:28:42.378Z,2.30
2022-11-25T00:31:11.161Z,1.85
2022-11-25T00:33:39.136Z,1.83
2022-11-25T00:36:09.008Z,1.77
2022-11-25T00:38:36.949Z,1.77
2022-11-25T00:41:22.539Z,1.52
2022-11-25T00:44:09.478Z,1.60
2022-11-25T00:46:38.502Z,1.48
2022-11-25T00:49:06.652Z,1.40
2022-11-25T00:51:34.600Z,1.58
2022-11-25T00:54:02.482Z,1.42
2022-11-25T00:56:30.455Z,1.40
2022-11-25T00:58:59.883Z,1.77
2022-11-25T01:01:27.960Z,2.08
2022-11-25T01:03:55.890Z,2.65
2022-11-25T01:06:23.960Z,1.25
2022-11-25T01:08:51.890Z,1.38
2022-11-25T01:11:21.638Z,2.08
2022-11-25T01:13:49.653Z,1.30
2022-11-25T01:16:19.756Z,1.75
2022-11-25T01:18:47.771Z,1.40
2022-11-25T01:21:17.984Z,1.48
2022-11-25T01:23:45.930Z,1.60
2022-11-25T01:26:14.825Z,1.48
2022-11-25T01:28:42.735Z,2.50
2022-11-25T01:31:13.031Z,1.35
2022-11-25T01:33:42.406Z,1.35
2022-11-25T01:36:11.442Z,1.65
2022-11-25T01:38:39.461Z,1.67
2022-11-25T01:41:07.972Z,1.42
2022-11-25T01:43:36.002Z,3.72
2022-11-25T01:46:09.062Z,1.85
2022-11-25T01:48:40.351Z,1.80
2022-11-25T01:51:14.903Z,1.58
2022-11-25T01:56:10.583Z,1.25
2022-11-25T01:58:38.716Z,1.20
2022-11-25T02:01:06.931Z,1.85
2022-11-25T02:03:36.477Z,1.48
2022-11-25T02:06:07.076Z,2.25
2022-11-25T02:08:36.385Z,1.08
2022-11-25T02:11:04.967Z,1.38
2022-11-25T02:13:32.939Z,1.98
2022-11-25T02:16:01.376Z,1.30
2022-11-25T02:18:29.296Z,1.35
2022-11-25T02:20:57.288Z,1.30
2022-11-25T02:23:28.900Z,1.40
2022-11-25T02:25:58.281Z,1.10
2022-11-25T02:28:27.773Z,1.63
2022-11-25T02:30:55.762Z,1.65
2022-11-25T02:33:23.660Z,1.50
2022-11-25T02:35:52.206Z,2.08
2022-11-25T02:38:21.813Z,1.52
2022-11-25T02:40:50.990Z,1.55
2022-11-25T02:43:20.303Z,1.50
2022-11-25T02:45:53.191Z,1.55
2022-11-25T02:48:34.484Z,1.58
2022-11-25T02:51:09.878Z,2.40
2022-11-25T02:53:38.914Z,1.60
2022-11-25T02:56:07.413Z,1.20
2022-11-25T02:58:37.031Z,2.38
2022-11-25T03:01:05.041Z,1.88
2022-11-25T03:03:33.003Z,2.03
2022-11-25T03:06:00.963Z,3.97
2022-11-25T03:08:29.002Z,1.92
2022-11-25T03:10:58.305Z,3.85
2022-11-25T03:13:26.207Z,3.67
2022-11-25T03:15:55.500Z,1.63
2022-11-25T03:18:23.417Z,1.67
2022-11-25T03:20:53.481Z,1.20
2022-11-25T03:23:21.444Z,1.20
2022-11-25T03:25:49.412Z,2.05
2022-11-25T03:28:17.304Z,1.85
2022-11-25T03:30:45.209Z,1.45
2022-11-25T03:33:17.022Z,2.85
2022-11-25T03:35:44.890Z,2.05
2022-11-25T03:38:12.831Z,1.77
2022-11-25T03:40:40.793Z,1.52
2022-11-25T03:43:08.807Z,1.70
2022-11-25T03:45:36.851Z,1.98
2022-11-25T03:48:05.243Z,1.00
2022-11-25T03:50:34.549Z,1.67
2022-11-25T03:53:02.433Z,1.20
2022-11-25T03:55:30.421Z,1.52
2022-11-25T03:57:58.775Z,1.38
2022-11-25T04:00:26.758Z,1.23
2022-11-25T04:02:54.771Z,1.70
2022-11-25T04:05:22.839Z,1.95
2022-11-25T04:07:56.419Z,1.40
2022-11-25T04:10:25.981Z,1.35
2022-11-25T04:12:52.984Z,1.73
2022-11-25T04:15:20.983Z,2.10
2022-11-25T04:17:48.929Z,1.83
2022-11-25T04:20:16.940Z,1.60
2022-11-25T04:22:45.040Z,3.35
2022-11-25T04:25:14.367Z,1.60
2022-11-25T04:27:42.278Z,1.33
2022-11-25T04:30:11.011Z,1.13
2022-11-25T04:32:39.167Z,1.48
2022-11-25T04:35:07.806Z,1.42
2022-11-25T04:37:37.093Z,1.60
2022-11-25T04:40:05.924Z,1.50
2022-11-25T04:42:36.665Z,1.55
2022-11-25T04:47:54.004Z,1.70
2022-11-25T04:50:23.125Z,1.55
2022-11-25T04:52:51.115Z,1.50
2022-11-25T04:55:19.283Z,1.13
2022-11-25T04:57:48.661Z,1.30
2022-11-25T05:00:18.046Z,1.70
2022-11-25T05:02:46.005Z,2.33
2022-11-25T05:05:15.395Z,2.00
2022-11-25T05:07:45.116Z,0.88
2022-11-25T05:10:14.323Z,1.45
2022-11-25T05:12:42.357Z,2.05
2022-11-25T05:15:12.371Z,2.22
2022-11-25T05:17:40.307Z,2.28
2022-11-25T05:20:10.390Z,1.55
2022-11-25T05:22:38.360Z,1.17
2022-11-25T05:25:07.049Z,0.98
2022-11-25T05:27:34.973Z,1.35
2022-11-25T05:30:02.983Z,1.15
2022-11-25T05:32:32.377Z,1.17
2022-11-25T05:35:00.322Z,2.28
2022-11-25T05:37:28.595Z,1.58
2022-11-25T05:39:56.577Z,1.75
2022-11-25T05:42:24.514Z,1.70
2022-11-25T05:44:52.566Z,1.73
2022-11-25T05:47:20.597Z,1.67
2022-11-25T05:49:49.995Z,1.80
2022-11-25T05:52:17.971Z,1.55
2022-11-25T05:54:45.997Z,1.60
2022-11-25T05:57:17.029Z,2.33
2022-11-25T05:59:44.938Z,1.25
2022-11-25T06:02:13.072Z,1.05
2022-11-25T06:04:41.082Z,1.10
2022-11-25T06:07:10.492Z,1.63
2022-11-25T06:09:38.482Z,1.83
2022-11-25T06:12:06.882Z,1.42
2022-11-25T06:14:35.156Z,2.95
2022-11-25T06:17:03.208Z,1.35
2022-11-25T06:19:31.248Z,1.45
2022-11-25T06:21:59.260Z,1.52
2022-11-25T06:24:29.025Z,1.23
2022-11-25T06:26:56.938Z,1.83
2022-11-25T06:29:24.977Z,4.15
2022-11-25T06:31:52.934Z,1.63
2022-11-25T06:34:20.912Z,1.08
2022-11-25T06:36:50.229Z,2.00
2022-11-25T06:39:18.363Z,1.98
2022-11-25T06:41:48.328Z,1.60
2022-11-25T06:44:16.362Z,1.52
2022-11-25T06:46:46.016Z,3.15
2022-11-25T06:49:14.221Z,1.60
2022-11-25T06:51:42.129Z,4.43
2022-11-25T06:54:10.460Z,1.45
2022-11-25T06:56:38.495Z,6.05
2022-11-25T06:59:07.839Z,2.30
2022-11-25T07:01:35.791Z,4.60
2022-11-25T07:04:04.667Z,6.47
2022-11-25T07:06:33.338Z,2.72
2022-11-25T07:09:01.358Z,2.22
2022-11-25T07:11:30.174Z,1.63
2022-11-25T07:13:59.172Z,1.63
2022-11-25T07:16:29.035Z,2.58
2022-11-25T07:18:57.184Z,1.52
2022-11-25T07:22:08.572Z,1.48
2022-11-25T07:24:36.896Z,1.67
2022-11-25T07:27:06.486Z,1.15
2022-11-25T07:29:57.901Z,1.63
2022-11-25T07:32:24.928Z,1.65
2022-11-25T07:34:52.950Z,2.95
2022-11-25T07:37:21.992Z,2.53
2022-11-25T07:39:50.042Z,2.05
2022-11-25T07:42:18.029Z,2.13
2022-11-25T07:44:45.883Z,2.38
2022-11-25T07:47:13.767Z,3.17
2022-11-25T07:49:43.238Z,1.55
2022-11-25T07:52:11.165Z,3.28
2022-11-25T07:54:39.109Z,2.58
2022-11-25T07:57:07.100Z,2.85
2022-11-25T07:59:36.333Z,4.20
2022-11-25T08:02:04.554Z,3.53
2022-11-25T08:04:32.570Z,2.88
2022-11-25T08:07:01.859Z,2.47
2022-11-25T08:09:29.916Z,5.15
2022-11-25T08:11:58.442Z,4.47
2022-11-25T08:14:26.975Z,2.47
2022-11-25T08:16:54.982Z,3.25
2022-11-25T08:19:33.713Z,3.17
2022-11-25T08:22:03.102Z,3.60
2022-11-25T08:24:31.065Z,6.10
2022-11-25T08:27:01.357Z,3.15
2022-11-25T08:29:29.321Z,6.60
2022-11-25T08:31:57.310Z,2.42
2022-11-25T08:34:25.583Z,5.78
2022-11-25T08:36:53.562Z,2.90
2022-11-25T08:39:50.626Z,4.10
2022-11-25T08:42:10.966Z,6.60
2022-11-25T08:44:40.645Z,5.57
2022-11-25T08:47:09.966Z,7.80
2022-11-25T08:49:41.136Z,2.55
2022-11-25T08:52:10.161Z,4.18
2022-11-25T08:54:39.596Z,3.30
2022-11-25T08:57:07.586Z,6.68
2022-11-25T08:59:35.934Z,2.30
2022-11-25T09:02:04.280Z,2.33
2022-11-25T09:04:32.268Z,3.15
2022-11-25T09:07:37.641Z,2.15
2022-11-25T09:10:08.654Z,2.85
2022-11-25T09:12:36.577Z,1.98
2022-11-25T09:15:07.965Z,2.58
2022-11-25T09:17:37.467Z,3.78
2022-11-25T09:20:06.326Z,2.80
2022-11-25T09:22:34.255Z,3.10
2022-11-25T09:25:02.273Z,2.58
2022-11-25T09:27:31.959Z,1.80
2022-11-25T09:29:59.995Z,2.75
2022-11-25T09:32:28.043Z,7.85
2022-11-25T09:34:55.992Z,2.17
2022-11-25T09:37:48.850Z,2.83
2022-11-25T09:40:19.757Z,3.00
2022-11-25T09:43:09.121Z,3.10
2022-11-25T09:45:59.953Z,2.08
2022-11-25T09:48:36.308Z,3.05
2022-11-25T09:51:08.269Z,1.85
2022-11-25T09:53:43.300Z,1.52
2022-11-25T09:56:15.698Z,2.47
2022-11-25T09:58:47.745Z,1.85
2022-11-25T10:01:18.245Z,2.42
2022-11-25T10:03:47.657Z,2.47
2022-11-25T10:06:17.461Z,1.65
2022-11-25T10:08:46.533Z,1.80
2022-11-25T10:11:20.258Z,3.00
2022-11-25T10:13:53.201Z,1.52
2022-11-25T10:16:29.941Z,2.00
2022-11-25T10:19:00.744Z,1.40
2022-11-25T10:21:29.204Z,1.45
2022-11-25T10:23:57.130Z,1.73
2022-11-25T10:26:29.021Z,1.90
2022-11-25T10:29:01.556Z,2.47
2022-11-25T10:31:32.163Z,1.48
2022-11-25T10:34:00.890Z,2.05
2022-11-25T10:36:30.577Z,1.10
2022-11-25T10:38:59.817Z,1.40
2022-11-25T10:41:29.063Z,1.00
2022-11-25T10:43:58.366Z,1.20
2022-11-25T10:46:43.697Z,2.97
2022-11-25T10:49:22.079Z,1.50
2022-11-25T10:51:59.535Z,1.45
2022-11-25T10:54:28.436Z,1.73
2022-11-25T10:56:58.000Z,1.08
2022-11-25T10:59:29.813Z,2.03
2022-11-25T11:02:15.004Z,0.95
2022-11-25T11:04:52.195Z,0.80
2022-11-25T11:07:20.227Z,1.40
2022-11-25T11:09:48.854Z,1.73
2022-11-25T11:12:20.993Z,1.63
2022-11-25T11:14:50.528Z,1.92
2022-11-25T11:17:33.257Z,3.28
2022-11-25T11:20:14.328Z,2.53
2022-11-25T11:22:47.576Z,1.48
2022-11-25T11:25:27.117Z,1.27
2022-11-25T11:27:55.254Z,1.00
2022-11-25T11:30:30.139Z,1.15
2022-11-25T11:33:03.155Z,1.42
2022-11-25T11:35:55.942Z,1.10
2022-11-25T11:38:32.798Z,1.30
2022-11-25T11:41:07.249Z,1.25
2022-11-25T11:43:42.497Z,1.00
2022-11-25T11:46:23.274Z,1.05
2022-11-25T11:48:56.254Z,1.30
2022-11-25T11:51:27.711Z,1.85
2022-11-25T11:54:30.809Z,1.48
2022-11-25T11:57:01.070Z,1.17
2022-11-25T11:59:42.495Z,2.05
2022-11-25T12:02:20.297Z,2.85
2022-11-25T12:04:52.487Z,1.70
2022-11-25T12:07:22.819Z,1.17
2022-11-25T12:09:52.499Z,1.48
2022-11-25T12:12:20.491Z,1.38
2022-11-25T12:14:49.147Z,1.00
2022-11-25T12:17:19.766Z,1.60
2022-11-25T12:19:53.173Z,0.93
2022-11-25T12:22:22.782Z,1.25
2022-11-25T12:24:52.302Z,1.08
2022-11-25T12:27:21.899Z,1.10
2022-11-25T12:29:50.870Z,0.90
2022-11-25T12:32:36.868Z,1.20
2022-11-25T12:35:06.781Z,1.10
2022-11-25T12:37:37.346Z,0.95
2022-11-25T12:40:07.355Z,0.90
2022-11-25T12:42:35.287Z,1.25
2022-11-25T12:45:04.674Z,1.38
2022-11-25T12:47:34.099Z,1.73
2022-11-25T12:50:02.021Z,1.23
2022-11-25T12:52:40.013Z,0.80
2022-11-25T12:55:11.774Z,1.42
2022-11-25T12:58:03.560Z,1.45
2022-11-25T13:00:42.800Z,1.83
2022-11-25T13:03:39.673Z,1.25
2022-11-25T13:06:39.894Z,0.80
2022-11-25T13:09:14.486Z,0.88
2022-11-25T13:14:28.454Z,1.33
2022-11-25T13:17:00.633Z,1.02
2022-11-25T13:19:33.717Z,0.80
2022-11-25T13:22:02.790Z,1.17
2022-11-25T13:24:34.030Z,0.82
2022-11-25T13:27:02.603Z,1.80
2022-11-25T13:30:04.466Z,0.95
2022-11-25T13:32:34.322Z,0.90
2022-11-25T13:35:40.227Z,0.90
2022-11-25T13:38:49.176Z,0.70
2022-11-25T13:41:47.411Z,1.38
2022-11-25T13:44:28.126Z,1.33
2022-11-25T13:46:56.677Z,1.20
2022-11-25T13:49:39.566Z,1.10
2022-11-25T13:52:47.993Z,1.20
2022-11-25T13:55:32.321Z,1.25
2022-11-25T13:58:19.500Z,0.70
2022-11-25T14:01:26.305Z,1.02
2022-11-25T14:04:01.243Z,0.98
2022-11-25T14:06:51.235Z,1.20
2022-11-25T14:09:41.354Z,0.73
2022-11-25T14:12:32.281Z,1.25
2022-11-25T14:15:30.458Z,1.10
2022-11-25T14:21:49.673Z,0.80
2022-11-25T14:24:23.342Z,1.27
2022-11-25T14:26:52.841Z,0.85
2022-11-25T14:29:24.584Z,1.13
2022-11-25T14:31:54.652Z,1.00
2022-11-25T14:34:24.083Z,1.10
2022-11-25T14:36:53.960Z,0.85
2022-11-25T14:39:24.071Z,0.98
2022-11-25T14:41:56.388Z,0.90
2022-11-25T14:44:27.266Z,0.95
2022-11-25T14:46:55.557Z,0.98
2022-11-25T14:52:11.992Z,0.88
2022-11-25T14:54:42.694Z,0.75
2022-11-25T14:57:10.768Z,0.77
2022-11-25T14:59:45.146Z,0.73
2022-11-25T15:04:52.478Z,1.67
2022-11-25T15:07:27.803Z,0.93
2022-11-25T15:09:58.896Z,1.15
2022-11-25T15:12:30.519Z,1.00
2022-11-25T15:14:59.911Z,1.42
2022-11-25T15:17:30.566Z,1.40
2022-11-25T15:19:59.352Z,0.77
2022-11-25T15:22:27.984Z,1.25
2022-11-25T15:24:56.580Z,1.40
2022-11-25T15:27:26.946Z,1.70
2022-11-25T15:29:56.342Z,1.20
2022-11-25T15:32:27.372Z,1.05
2022-11-25T15:34:55.752Z,1.40
2022-11-25T15:37:24.815Z,1.00
2022-11-25T15:39:53.358Z,1.27
2022-11-25T15:42:22.807Z,1.48
2022-11-25T15:44:52.086Z,1.63
2022-11-25T15:47:24.090Z,1.50
2022-11-25T15:49:58.647Z,1.13
2022-11-25T15:52:27.340Z,1.35
2022-11-25T15:54:56.147Z,1.42
2022-11-25T15:57:26.334Z,1.52
2022-11-25T16:00:06.415Z,1.50
2022-11-25T16:02:50.111Z,1.73
2022-11-25T16:05:31.769Z,1.23
2022-11-25T16:08:04.764Z,1.50
2022-11-25T16:10:33.803Z,1.45
2022-11-25T16:13:21.792Z,2.70
2022-11-25T16:15:52.184Z,2.25
2022-11-25T16:21:13.316Z,1.58
2022-11-25T16:23:45.614Z,1.85
2022-11-25T16:26:17.246Z,1.63
2022-11-25T16:28:52.765Z,1.50
2022-11-25T16:31:21.448Z,1.70
2022-11-25T16:33:50.133Z,1.92
2022-11-25T16:36:19.363Z,1.65
2022-11-25T16:38:47.943Z,2.10
2022-11-25T16:41:20.960Z,2.10
2022-11-25T16:43:49.710Z,2.28
2022-11-25T16:46:18.889Z,2.90
2022-11-25T16:48:47.918Z,2.78
2022-11-25T16:51:16.535Z,2.55
2022-11-25T16:53:47.661Z,2.70
2022-11-25T16:56:16.596Z,5.30
2022-11-25T16:58:45.719Z,6.32
2022-11-25T17:01:16.127Z,10.57
2022-11-25T17:03:45.191Z,9.30
2022-11-25T17:06:20.031Z,9.35
2022-11-25T17:08:52.512Z,8.52
2022-11-25T17:11:22.406Z,8.40
2022-11-25T17:13:52.378Z,9.82
2022-11-25T17:16:21.369Z,8.00
2022-11-25T17:18:50.295Z,7.53
2022-11-25T17:21:18.590Z,8.57
2022-11-25T17:23:50.210Z,7.35
2022-11-25T17:26:24.680Z,7.13
2022-11-25T17:29:03.990Z,6.95
2022-11-25T17:31:33.249Z,6.80
2022-11-25T17:34:01.922Z,6.93
2022-11-25T17:36:29.867Z,6.45
2022-11-25T17:38:59.195Z,6.93
2022-11-25T17:41:29.489Z,7.22
2022-11-25T17:43:59.182Z,7.50
2022-11-25T17:46:29.658Z,7.28
2022-11-25T17:48:59.220Z,6.65
2022-11-25T17:51:27.092Z,6.43
2022-11-25T17:53:56.368Z,6.95
2022-11-25T17:56:25.841Z,7.18
2022-11-25T17:58:55.941Z,6.10
2022-11-25T18:01:23.859Z,5.72
2022-11-25T18:03:54.791Z,7.30
2022-11-25T18:06:23.359Z,9.60
2022-11-25T18:08:52.041Z,17.15
2022-11-25T18:11:20.223Z,19.45
2022-11-25T18:13:48.992Z,23.90
2022-11-25T18:16:18.641Z,23.45
2022-11-25T18:18:47.269Z,25.88
2022-11-25T18:21:15.852Z,22.20
2022-11-25T18:23:44.648Z,27.00
2022-11-25T18:26:12.565Z,21.30
2022-11-25T18:28:42.221Z,20.58
2022-11-25T18:31:11.472Z,20.75
2022-11-25T18:33:42.061Z,17.00
2022-11-25T18:36:12.721Z,18.38
2022-11-25T18:38:41.485Z,18.52
2022-11-25T18:41:14.543Z,15.65
2022-11-25T18:43:43.272Z,14.98
2022-11-25T18:46:11.220Z,17.98
2022-11-25T18:48:41.526Z,17.23
2022-11-25T18:51:11.600Z,15.52
2022-11-25T18:53:40.297Z,16.50
2022-11-25T18:56:17.491Z,14.18
2022-11-25T18:58:47.826Z,14.00
2022-11-25T19:01:15.749Z,17.52
2022-11-25T19:03:45.835Z,15.30
2022-11-25T19:06:15.197Z,13.70
2022-11-25T19:08:44.527Z,14.73
2022-11-25T19:11:13.430Z,14.95
2022-11-25T19:13:42.860Z,13.65
2022-11-25T19:16:14.453Z,12.70
2022-11-25T19:18:43.141Z,14.45
2022-11-25T19:21:13.930Z,14.93
2022-11-25T19:23:42.781Z,13.48
2022-11-25T19:26:14.170Z,15.32
2022-11-25T19:28:44.296Z,13.13
2022-11-25T19:31:13.590Z,14.57
2022-11-25T19:33:42.582Z,13.57
2022-11-25T19:36:14.843Z,14.45
2022-11-25T19:38:42.796Z,13.52
2022-11-25T19:41:11.515Z,16.60
2022-11-25T19:43:39.451Z,14.70
2022-11-25T19:46:08.766Z,15.18
2022-11-25T19:48:38.815Z,15.18
2022-11-25T19:51:07.848Z,16.38
2022-11-25T19:53:37.187Z,14.45
2022-11-25T19:56:05.942Z,13.85
2022-11-25T19:58:33.865Z,15.35
2022-11-25T20:01:03.468Z,16.02
2022-11-25T20:03:31.530Z,14.73
2022-11-25T20:06:00.179Z,14.93
2022-11-25T20:08:29.293Z,14.88
2022-11-25T20:10:59.878Z,13.32
2022-11-25T20:13:28.028Z,15.88
2022-11-25T20:15:57.142Z,16.02
2022-11-25T20:18:25.156Z,13.40
2022-11-25T20:20:57.971Z,13.55
2022-11-25T20:23:26.885Z,15.23
2022-11-25T20:25:55.878Z,17.65
2022-11-25T20:28:26.729Z,13.63
2022-11-25T20:30:56.190Z,15.98
2022-11-25T20:33:25.055Z,14.38
2022-11-25T20:35:54.882Z,15.55
2022-11-25T20:38:23.691Z,13.85
2022-11-25T20:40:53.271Z,15.13
2022-11-25T20:43:29.119Z,14.93
2022-11-25T20:45:57.861Z,14.13
2022-11-25T20:48:25.988Z,13.15
2022-11-25T20:50:54.707Z,12.95
2022-11-25T20:53:23.239Z,12.93
2022-11-25T20:55:52.947Z,13.88
2022-11-25T20:58:22.166Z,14.88
2022-11-25T21:00:57.046Z,12.82
2022-11-25T21:03:25.630Z,13.30
2022-11-25T21:05:54.406Z,12.25
2022-11-25T21:08:23.651Z,14.13
2022-11-25T21:10:52.570Z,13.70
2022-11-25T21:13:21.411Z,13.23
2022-11-25T21:15:51.076Z,11.70
2022-11-25T21:18:20.466Z,12.93
2022-11-25T21:20:49.562Z,11.38
2022-11-25T21:23:19.399Z,11.40
2022-11-25T21:25:52.010Z,11.25
2022-11-25T21:28:21.952Z,11.20
2022-11-25T21:30:50.632Z,10.38
2022-11-25T21:33:19.932Z,11.90
2022-11-25T21:35:49.147Z,12.02
2022-11-25T21:38:18.333Z,12.98
2022-11-25T21:40:49.587Z,10.50
2022-11-25T21:43:21.689Z,10.93
2022-11-25T21:45:50.815Z,11.93
2022-11-25T21:48:21.374Z,11.32
2022-11-25T21:50:49.912Z,11.20
2022-11-25T21:53:18.008Z,9.68
2022-11-25T21:55:46.724Z,12.63
2022-11-25T21:58:18.564Z,10.55
2022-11-25T22:00:50.203Z,10.73
2022-11-25T22:03:20.369Z,9.65
2022-11-25T22:05:49.214Z,9.80
2022-11-25T22:08:17.309Z,9.35
2022-11-25T22:10:47.607Z,12.73
2022-11-25T22:13:16.033Z,9.93
2022-11-25T22:15:44.695Z,10.40
2022-11-25T22:18:15.895Z,11.13
2022-11-25T22:20:50.639Z,8.90
2022-11-25T22:23:21.254Z,9.50
2022-11-25T22:25:50.109Z,10.13
2022-11-25T22:28:21.009Z,9.13
2022-11-25T22:30:51.808Z,8.77
2022-11-25T22:33:19.856Z,10.25
2022-11-25T22:35:50.997Z,9.80
2022-11-25T22:41:05.616Z,9.85
2022-11-25T22:43:36.209Z,10.60
2022-11-25T22:46:05.355Z,9.50
2022-11-25T22:48:34.709Z,10.73
2022-11-25T22:51:04.766Z,9.93
2022-11-25T22:53:32.802Z,10.45
2022-11-25T22:56:01.404Z,9.32
2022-11-25T22:58:29.430Z,8.73
2022-11-25T23:00:58.298Z,8.65
2022-11-25T23:03:27.152Z,11.93
2022-11-25T23:05:55.643Z,8.57
2022-11-25T23:08:25.641Z,8.95
2022-11-25T23:10:55.015Z,9.63
2022-11-25T23:13:23.946Z,9.48
2022-11-25T23:15:53.327Z,8.40
2022-11-25T23:18:23.732Z,9.57
2022-11-25T23:20:51.789Z,7.75
2022-11-25T23:23:20.504Z,9.43
2022-11-25T23:25:49.931Z,9.65
2022-11-25T23:28:17.880Z,8.85
2022-11-25T23:30:48.063Z,9.45
2022-11-25T23:33:20.397Z,8.75
2022-11-25T23:35:48.462Z,8.95
2022-11-25T23:38:19.564Z,8.23
2022-11-25T23:40:47.468Z,8.40
2022-11-25T23:43:16.946Z,8.32
2022-11-25T23:45:47.978Z,8.73
2022-11-25T23:48:16.043Z,8.82
2022-11-25T23:50:43.937Z,7.93
2022-11-25T23:53:14.615Z,8.80
2022-11-25T23:55:42.557Z,7.63
2022-11-25T23:58:15.398Z,7.75
